createdAt,value
2023-11-18T00:01:35.961Z,100.00
2023-11-18T00:04:04.152Z,100.00
2023-11-18T00:06:32.245Z,100.00
2023-11-18T00:09:00.687Z,100.00
2023-11-18T00:11:28.917Z,100.00
2023-11-18T00:13:57.105Z,100.00
2023-11-18T00:16:25.374Z,100.00
2023-11-18T00:18:54.680Z,100.00
2023-11-18T00:21:26.081Z,100.00
2023-11-18T00:23:54.349Z,100.00
2023-11-18T00:26:22.833Z,100.00
2023-11-18T00:28:58.498Z,100.00
2023-11-18T00:31:26.672Z,100.00
2023-11-18T00:33:54.997Z,100.00
2023-11-18T00:36:23.585Z,100.00
2023-11-18T00:38:51.841Z,100.00
2023-11-18T00:41:20.023Z,100.00
2023-11-18T00:43:48.286Z,100.00
2023-11-18T00:46:16.762Z,100.00
2023-11-18T00:48:44.857Z,100.00
2023-11-18T00:51:13.553Z,100.00
2023-11-18T00:53:41.715Z,100.00
2023-11-18T00:56:19.387Z,100.00
2023-11-18T00:58:47.587Z,100.00
2023-11-18T01:01:19.041Z,100.00
2023-11-18T01:03:47.690Z,100.00
2023-11-18T01:06:18.596Z,100.00
2023-11-18T01:08:47.471Z,100.00
2023-11-18T01:11:23.442Z,100.00
2023-11-18T01:13:52.006Z,100.00
2023-11-18T01:16:21.040Z,100.00
2023-11-18T01:18:49.749Z,100.00
2023-11-18T01:21:18.654Z,100.00
2023-11-18T01:23:46.887Z,100.00
2023-11-18T01:26:16.191Z,100.00
2023-11-18T01:28:46.156Z,100.00
2023-11-18T01:31:16.615Z,100.00
2023-11-18T01:33:46.392Z,100.00
2023-11-18T01:36:14.579Z,100.00
2023-11-18T01:38:42.779Z,100.00
2023-11-18T01:41:11.021Z,100.00
2023-11-18T01:43:41.186Z,100.00
2023-11-18T01:46:11.719Z,100.00
2023-11-18T01:48:41.120Z,100.00
2023-11-18T01:51:13.586Z,100.00
2023-11-18T01:53:43.572Z,100.00
2023-11-18T01:56:12.454Z,100.00
2023-11-18T01:58:42.084Z,100.00
2023-11-18T02:01:11.371Z,100.00
2023-11-18T02:03:41.898Z,100.00
2023-11-18T02:06:11.815Z,100.00
2023-11-18T02:08:40.039Z,100.00
2023-11-18T02:11:51.065Z,100.00
2023-11-18T02:14:21.385Z,100.00
2023-11-18T02:16:54.503Z,100.00
2023-11-18T02:19:25.473Z,100.00
2023-11-18T02:21:55.567Z,100.00
2023-11-18T02:24:32.316Z,100.00
2023-11-18T02:27:01.614Z,100.00
2023-11-18T02:29:36.949Z,100.00
2023-11-18T02:32:16.787Z,100.00
2023-11-18T02:35:14.407Z,100.00
2023-11-18T02:37:48.401Z,100.00
2023-11-18T02:40:31.771Z,100.00
2023-11-18T02:43:01.691Z,100.00
2023-11-18T02:45:30.080Z,100.00
2023-11-18T02:47:58.708Z,100.00
2023-11-18T02:50:28.575Z,100.00
2023-11-18T02:52:57.892Z,100.00
2023-11-18T02:55:27.172Z,100.00
2023-11-18T02:57:55.440Z,100.00
2023-11-18T03:00:23.746Z,100.00
2023-11-18T03:02:53.734Z,100.00
2023-11-18T03:05:22.769Z,100.00
2023-11-18T03:07:52.977Z,100.00
2023-11-18T03:10:24.121Z,100.00
2023-11-18T03:12:54.164Z,100.00
2023-11-18T03:15:24.880Z,100.00
2023-11-18T03:17:53.985Z,100.00
2023-11-18T03:20:24.750Z,100.00
2023-11-18T03:22:54.148Z,100.00
2023-11-18T03:25:23.383Z,100.00
2023-11-18T03:27:51.955Z,100.00
2023-11-18T03:30:20.273Z,100.00
2023-11-18T03:32:48.581Z,100.00
2023-11-18T03:35:16.897Z,100.00
2023-11-18T03:37:45.366Z,100.00
2023-11-18T03:40:15.504Z,100.00
2023-11-18T03:42:44.412Z,100.00
2023-11-18T03:45:12.703Z,100.00
2023-11-18T03:47:41.047Z,100.00
2023-11-18T03:50:10.219Z,100.00
2023-11-18T03:52:41.621Z,100.00
2023-11-18T03:55:10.761Z,100.00
2023-11-18T03:57:38.936Z,100.00
2023-11-18T04:00:07.789Z,100.00
2023-11-18T04:02:41.263Z,100.00
2023-11-18T04:05:10.041Z,100.00
2023-11-18T04:07:38.247Z,100.00
2023-11-18T04:10:07.912Z,100.00
2023-11-18T04:12:36.139Z,100.00
2023-11-18T04:15:05.832Z,100.00
2023-11-18T04:17:35.514Z,100.00
2023-11-18T04:20:06.451Z,100.00
2023-11-18T04:22:34.650Z,100.00
2023-11-18T04:25:02.752Z,100.00
2023-11-18T04:27:31.004Z,100.00
2023-11-18T04:29:59.131Z,100.00
2023-11-18T04:32:28.253Z,100.00
2023-11-18T04:34:56.498Z,100.00
2023-11-18T04:37:27.678Z,100.00
2023-11-18T04:39:56.455Z,100.00
2023-11-18T04:42:24.560Z,100.00
2023-11-18T04:44:53.224Z,100.00
2023-11-18T04:47:21.357Z,100.00
2023-11-18T04:49:49.815Z,100.00
2023-11-18T04:52:18.008Z,100.00
2023-11-18T04:54:49.216Z,100.00
2023-11-18T04:57:18.154Z,100.00
2023-11-18T04:59:46.347Z,100.00
2023-11-18T05:02:14.600Z,100.00
2023-11-18T05:04:42.826Z,100.00
2023-11-18T05:07:10.952Z,100.00
2023-11-18T05:09:39.180Z,100.00
2023-11-18T05:12:08.055Z,100.00
2023-11-18T05:14:36.838Z,100.00
2023-11-18T05:17:07.876Z,100.00
2023-11-18T05:19:36.209Z,100.00
2023-11-18T05:22:05.773Z,100.00
2023-11-18T05:24:33.950Z,100.00
2023-11-18T05:27:02.891Z,100.00
2023-11-18T05:29:31.624Z,100.00
2023-11-18T05:31:59.789Z,100.00
2023-11-18T05:34:30.411Z,100.00
2023-11-18T05:37:00.432Z,100.00
2023-11-18T05:39:31.980Z,100.00
2023-11-18T05:42:00.795Z,100.00
2023-11-18T05:44:31.957Z,100.00
2023-11-18T05:47:00.477Z,100.00
2023-11-18T05:49:28.693Z,100.00
2023-11-18T05:51:57.445Z,100.00
2023-11-18T05:54:25.682Z,100.00
2023-11-18T05:57:00.042Z,100.00
2023-11-18T05:59:28.696Z,100.00
2023-11-18T06:01:58.164Z,100.00
2023-11-18T06:04:29.149Z,100.00
2023-11-18T06:06:57.893Z,100.00
2023-11-18T06:09:26.856Z,100.00
2023-11-18T06:11:55.978Z,100.00
2023-11-18T06:14:24.042Z,100.00
2023-11-18T06:16:53.208Z,100.00
2023-11-18T06:19:22.106Z,100.00
2023-11-18T06:21:50.986Z,100.00
2023-11-18T06:24:19.979Z,100.00
2023-11-18T06:26:50.518Z,100.00
2023-11-18T06:29:18.665Z,100.00
2023-11-18T06:31:47.179Z,100.00
2023-11-18T06:34:15.306Z,100.00
2023-11-18T06:36:43.392Z,100.00
2023-11-18T06:39:14.170Z,100.00
2023-11-18T06:41:49.607Z,100.00
2023-11-18T06:44:25.060Z,100.00
2023-11-18T06:46:53.425Z,100.00
2023-11-18T06:49:21.714Z,100.00
2023-11-18T06:51:49.809Z,100.00
2023-11-18T06:54:18.499Z,100.00
2023-11-18T06:56:46.863Z,100.00
2023-11-18T06:59:16.755Z,100.00
2023-11-18T07:01:46.514Z,100.00
2023-11-18T07:04:16.354Z,100.00
2023-11-18T07:06:45.944Z,100.00
2023-11-18T07:09:18.256Z,100.00
2023-11-18T07:11:48.189Z,100.00
2023-11-18T07:14:17.180Z,100.00
2023-11-18T07:16:46.092Z,100.00
2023-11-18T07:19:24.662Z,100.00
2023-11-18T07:21:53.667Z,100.00
2023-11-18T07:24:22.388Z,100.00
2023-11-18T07:26:52.350Z,100.00
2023-11-18T07:29:20.791Z,100.00
2023-11-18T07:31:50.392Z,100.00
2023-11-18T07:34:18.663Z,100.00
2023-11-18T07:36:48.491Z,100.00
2023-11-18T07:39:17.407Z,100.00
2023-11-18T07:41:45.808Z,100.00
2023-11-18T07:44:14.362Z,100.00
2023-11-18T07:46:44.065Z,100.00
2023-11-18T07:49:12.871Z,100.00
2023-11-18T07:51:43.205Z,100.00
2023-11-18T07:54:11.581Z,100.00
2023-11-18T07:56:42.140Z,100.00
2023-11-18T07:59:10.336Z,100.00
2023-11-18T08:01:41.738Z,100.00
2023-11-18T08:04:09.958Z,100.00
2023-11-18T08:06:38.259Z,100.00
2023-11-18T08:09:11.577Z,100.00
2023-11-18T08:11:42.367Z,100.00
2023-11-18T08:14:10.489Z,100.00
2023-11-18T08:16:38.855Z,100.00
2023-11-18T08:19:09.231Z,100.00
2023-11-18T08:21:39.107Z,100.00
2023-11-18T08:24:09.352Z,100.00
2023-11-18T08:26:39.960Z,100.00
2023-11-18T08:29:09.340Z,100.00
2023-11-18T08:31:40.773Z,100.00
2023-11-18T08:34:11.534Z,100.00
2023-11-18T08:36:39.723Z,100.00
2023-11-18T08:39:12.477Z,100.00
2023-11-18T08:41:40.875Z,100.00
2023-11-18T08:44:22.001Z,100.00
2023-11-18T08:46:53.597Z,100.00
2023-11-18T08:49:24.759Z,100.00
2023-11-18T08:51:57.848Z,100.00
2023-11-18T08:54:39.097Z,100.00
2023-11-18T08:57:24.470Z,100.00
2023-11-18T08:59:53.271Z,100.00
2023-11-18T09:02:24.731Z,100.00
2023-11-18T09:04:56.587Z,100.00
2023-11-18T09:07:25.518Z,100.00
2023-11-18T09:09:53.713Z,99.55
2023-11-18T09:12:21.896Z,99.13
2023-11-18T09:14:53.012Z,100.00
2023-11-18T09:17:23.769Z,100.00
2023-11-18T09:19:53.951Z,100.00
2023-11-18T09:22:22.268Z,99.00
2023-11-18T09:24:51.939Z,98.25
2023-11-18T09:27:20.032Z,96.04
2023-11-18T09:29:48.515Z,92.40
2023-11-18T09:32:16.704Z,90.16
2023-11-18T09:34:46.783Z,86.09
2023-11-18T09:37:16.225Z,80.68
2023-11-18T09:39:46.833Z,80.32
2023-11-18T09:42:20.064Z,78.56
2023-11-18T09:44:49.473Z,78.10
2023-11-18T09:47:25.832Z,74.25
2023-11-18T09:49:58.418Z,73.85
2023-11-18T09:52:32.918Z,74.36
2023-11-18T09:55:05.699Z,75.27
2023-11-18T09:57:42.376Z,77.28
2023-11-18T10:00:24.459Z,80.69
2023-11-18T10:02:54.142Z,81.78
2023-11-18T10:05:24.267Z,83.21
2023-11-18T10:07:52.768Z,81.27
2023-11-18T10:10:25.980Z,81.13
2023-11-18T10:12:58.888Z,83.34
2023-11-18T10:15:28.518Z,82.95
2023-11-18T10:18:00.992Z,82.76
2023-11-18T10:20:46.952Z,83.38
2023-11-18T10:23:22.684Z,82.94
2023-11-18T10:25:54.164Z,82.80
2023-11-18T10:28:29.385Z,82.28
2023-11-18T10:31:16.524Z,82.01
2023-11-18T10:33:45.023Z,81.88
2023-11-18T10:36:24.244Z,79.83
2023-11-18T10:38:56.778Z,80.35
2023-11-18T10:41:25.434Z,79.29
2023-11-18T10:44:15.530Z,80.01
2023-11-18T10:46:54.350Z,79.46
2023-11-18T10:49:23.474Z,79.91
2023-11-18T10:51:53.122Z,76.28
2023-11-18T10:54:22.230Z,75.37
2023-11-18T10:56:51.157Z,74.74
2023-11-18T10:59:19.958Z,74.99
2023-11-18T11:01:50.722Z,74.94
2023-11-18T11:04:23.607Z,75.98
2023-11-18T11:06:57.369Z,72.78
2023-11-18T11:09:29.925Z,70.96
2023-11-18T11:12:05.587Z,70.44
2023-11-18T11:14:44.648Z,71.15
2023-11-18T11:17:26.472Z,70.02
2023-11-18T11:20:18.828Z,70.37
2023-11-18T11:23:21.257Z,70.40
2023-11-18T11:26:01.534Z,71.83
2023-11-18T11:28:45.103Z,69.58
2023-11-18T11:31:39.338Z,73.03
2023-11-18T11:34:17.621Z,72.41
2023-11-18T11:36:52.359Z,72.93
2023-11-18T11:39:27.227Z,68.77
2023-11-18T11:41:57.724Z,72.21
2023-11-18T11:44:31.223Z,73.46
2023-11-18T11:47:02.110Z,69.19
2023-11-18T11:50:12.982Z,64.76
2023-11-18T11:53:00.187Z,66.81
2023-11-18T11:56:07.619Z,65.16
2023-11-18T11:58:40.515Z,64.53
2023-11-18T12:01:38.691Z,60.49
2023-11-18T12:04:11.800Z,63.75
2023-11-18T12:06:45.415Z,61.38
2023-11-18T12:09:21.090Z,64.37
2023-11-18T12:11:50.336Z,62.81
2023-11-18T12:14:21.764Z,60.04
2023-11-18T12:17:10.165Z,60.57
2023-11-18T12:19:49.301Z,59.48
2023-11-18T12:22:42.207Z,62.28
2023-11-18T12:25:16.532Z,61.06
2023-11-18T12:27:53.628Z,60.36
2023-11-18T12:30:28.336Z,58.89
2023-11-18T12:33:10.143Z,61.29
2023-11-18T12:35:52.400Z,60.21
2023-11-18T12:38:58.651Z,57.72
2023-11-18T12:41:39.526Z,57.40
2023-11-18T12:44:19.486Z,60.95
2023-11-18T12:47:15.774Z,58.08
2023-11-18T12:49:55.491Z,58.63
2023-11-18T12:52:24.579Z,59.10
2023-11-18T12:54:59.935Z,58.00
2023-11-18T12:57:32.444Z,57.94
2023-11-18T13:00:05.096Z,57.74
2023-11-18T13:02:34.184Z,58.42
2023-11-18T13:05:10.345Z,59.30
2023-11-18T13:07:39.118Z,62.26
2023-11-18T13:10:08.860Z,61.20
2023-11-18T13:12:37.622Z,57.19
2023-11-18T13:15:09.360Z,60.74
2023-11-18T13:17:37.631Z,60.52
2023-11-18T13:20:16.115Z,58.79
2023-11-18T13:22:48.226Z,60.25
2023-11-18T13:25:18.576Z,62.83
2023-11-18T13:27:47.645Z,59.40
2023-11-18T13:30:18.437Z,61.65
2023-11-18T13:32:47.413Z,59.05
2023-11-18T13:35:20.124Z,61.22
2023-11-18T13:37:50.327Z,60.58
2023-11-18T13:40:21.912Z,60.06
2023-11-18T13:43:01.814Z,61.53
2023-11-18T13:45:36.387Z,60.15
2023-11-18T13:48:09.773Z,61.97
2023-11-18T13:50:41.359Z,64.02
2023-11-18T13:53:09.895Z,64.99
2023-11-18T13:55:39.840Z,51.90
2023-11-18T13:58:08.452Z,54.11
2023-11-18T14:00:37.066Z,53.73
2023-11-18T14:03:07.779Z,53.12
2023-11-18T14:05:36.928Z,53.88
2023-11-18T14:08:10.853Z,53.28
2023-11-18T14:10:41.932Z,53.80
2023-11-18T14:13:14.143Z,53.16
2023-11-18T14:15:45.271Z,54.69
2023-11-18T14:18:15.406Z,55.96
2023-11-18T14:20:43.930Z,54.86
2023-11-18T14:23:12.483Z,55.89
2023-11-18T14:25:40.920Z,56.93
2023-11-18T14:28:12.218Z,58.70
2023-11-18T14:30:43.095Z,57.59
2023-11-18T14:33:11.280Z,58.86
2023-11-18T14:35:41.355Z,60.32
2023-11-18T14:38:09.813Z,61.20
2023-11-18T14:40:39.190Z,60.60
2023-11-18T14:43:08.332Z,60.69
2023-11-18T14:45:37.463Z,61.41
2023-11-18T14:48:06.493Z,62.63
2023-11-18T14:50:36.233Z,63.67
2023-11-18T14:53:05.050Z,65.53
2023-11-18T14:55:38.851Z,65.85
2023-11-18T14:58:08.132Z,66.12
2023-11-18T15:00:39.002Z,67.79
2023-11-18T15:03:07.703Z,67.23
2023-11-18T15:05:36.589Z,68.79
2023-11-18T15:08:10.383Z,70.04
2023-11-18T15:10:38.551Z,71.18
2023-11-18T15:13:06.699Z,71.87
2023-11-18T15:15:37.986Z,72.49
2023-11-18T15:18:09.976Z,75.55
2023-11-18T15:20:39.950Z,76.71
2023-11-18T15:23:08.601Z,79.25
2023-11-18T15:25:37.087Z,80.82
2023-11-18T15:28:06.512Z,81.30
2023-11-18T15:30:34.649Z,82.05
2023-11-18T15:33:03.184Z,82.97
2023-11-18T15:35:31.761Z,84.95
2023-11-18T15:37:59.967Z,84.72
2023-11-18T15:40:29.453Z,85.67
2023-11-18T15:42:57.847Z,86.99
2023-11-18T15:45:25.953Z,88.96
2023-11-18T15:47:54.281Z,89.62
2023-11-18T15:50:22.745Z,90.02
2023-11-18T15:52:55.037Z,91.22
2023-11-18T15:55:25.467Z,94.66
2023-11-18T15:57:54.821Z,95.16
2023-11-18T16:00:28.454Z,94.32
2023-11-18T16:03:02.133Z,92.99
2023-11-18T16:05:35.900Z,94.32
2023-11-18T16:08:08.272Z,94.31
2023-11-18T16:10:38.706Z,95.50
2023-11-18T16:13:07.723Z,95.40
2023-11-18T16:15:37.005Z,95.52
2023-11-18T16:18:05.798Z,99.84
2023-11-18T16:20:34.796Z,100.00
2023-11-18T16:23:07.110Z,100.00
2023-11-18T16:25:36.787Z,100.00
2023-11-18T16:28:10.420Z,100.00
2023-11-18T16:30:39.087Z,100.00
2023-11-18T16:33:08.924Z,100.00
2023-11-18T16:35:37.619Z,100.00
2023-11-18T16:38:06.709Z,100.00
2023-11-18T16:40:35.664Z,100.00
2023-11-18T16:43:04.552Z,100.00
2023-11-18T16:45:33.098Z,100.00
2023-11-18T16:48:01.414Z,100.00
2023-11-18T16:50:30.729Z,100.00
2023-11-18T16:53:00.954Z,100.00
2023-11-18T16:55:32.835Z,100.00
2023-11-18T16:58:02.778Z,100.00
2023-11-18T17:00:33.511Z,100.00
2023-11-18T17:03:01.835Z,100.00
2023-11-18T17:05:31.231Z,100.00
2023-11-18T17:08:01.900Z,100.00
2023-11-18T17:10:33.642Z,100.00
2023-11-18T17:13:04.287Z,100.00
2023-11-18T17:15:32.742Z,100.00
2023-11-18T17:18:04.910Z,100.00
2023-11-18T17:20:33.815Z,100.00
2023-11-18T17:23:03.726Z,100.00
2023-11-18T17:25:32.317Z,100.00
2023-11-18T17:28:03.514Z,100.00
2023-11-18T17:30:36.180Z,100.00
2023-11-18T17:33:05.134Z,100.00
2023-11-18T17:35:33.352Z,100.00
2023-11-18T17:38:05.989Z,100.00
2023-11-18T17:40:34.351Z,100.00
2023-11-18T17:43:02.531Z,100.00
2023-11-18T17:45:30.737Z,100.00
2023-11-18T17:47:59.173Z,100.00
2023-11-18T17:50:27.959Z,100.00
2023-11-18T17:52:58.379Z,100.00
2023-11-18T17:55:28.710Z,100.00
2023-11-18T17:58:00.728Z,100.00
2023-11-18T18:00:28.943Z,100.00
2023-11-18T18:02:57.041Z,100.00
2023-11-18T18:05:25.358Z,100.00
2023-11-18T18:07:53.907Z,100.00
2023-11-18T18:10:25.716Z,100.00
2023-11-18T18:12:55.352Z,100.00
2023-11-18T18:15:27.238Z,100.00
2023-11-18T18:17:55.457Z,100.00
2023-11-18T18:20:23.795Z,100.00
2023-11-18T18:22:51.950Z,100.00
2023-11-18T18:25:20.195Z,100.00
2023-11-18T18:27:51.313Z,100.00
2023-11-18T18:30:19.903Z,100.00
2023-11-18T18:32:50.094Z,100.00
2023-11-18T18:35:18.682Z,100.00
2023-11-18T18:37:46.849Z,100.00
2023-11-18T18:40:15.833Z,100.00
2023-11-18T18:42:44.103Z,100.00
2023-11-18T18:45:12.864Z,100.00
2023-11-18T18:47:41.115Z,100.00
2023-11-18T18:50:10.006Z,100.00
2023-11-18T18:52:38.423Z,100.00
2023-11-18T18:55:10.303Z,100.00
2023-11-18T18:57:38.580Z,100.00
2023-11-18T19:00:07.968Z,100.00
2023-11-18T19:02:36.185Z,100.00
2023-11-18T19:05:04.703Z,100.00
2023-11-18T19:07:33.367Z,100.00
2023-11-18T19:10:01.886Z,100.00
2023-11-18T19:12:30.211Z,100.00
2023-11-18T19:14:58.364Z,100.00
2023-11-18T19:17:26.804Z,100.00
2023-11-18T19:19:55.136Z,100.00
2023-11-18T19:22:26.224Z,100.00
2023-11-18T19:24:54.459Z,100.00
2023-11-18T19:27:22.561Z,100.00
2023-11-18T19:29:50.658Z,100.00
2023-11-18T19:32:18.810Z,100.00
2023-11-18T19:34:46.906Z,100.00
2023-11-18T19:37:15.021Z,100.00
2023-11-18T19:39:44.388Z,100.00
2023-11-18T19:42:13.047Z,100.00
2023-11-18T19:44:41.401Z,100.00
2023-11-18T19:47:09.601Z,100.00
2023-11-18T19:49:38.528Z,100.00
2023-11-18T19:52:08.232Z,100.00
2023-11-18T19:54:36.827Z,100.00
2023-11-18T19:57:05.123Z,100.00
2023-11-18T19:59:33.855Z,100.00
2023-11-18T20:02:02.454Z,100.00
2023-11-18T20:04:34.449Z,100.00
2023-11-18T20:07:04.014Z,100.00
2023-11-18T20:09:35.259Z,100.00
2023-11-18T20:12:05.178Z,100.00
2023-11-18T20:14:34.473Z,100.00
2023-11-18T20:17:02.890Z,100.00
2023-11-18T20:19:33.676Z,100.00
2023-11-18T20:22:02.043Z,100.00
2023-11-18T20:24:30.414Z,100.00
2023-11-18T20:26:59.105Z,100.00
2023-11-18T20:29:27.753Z,100.00
2023-11-18T20:31:56.286Z,100.00
2023-11-18T20:34:24.361Z,100.00
2023-11-18T20:36:52.513Z,100.00
2023-11-18T20:39:20.632Z,100.00
2023-11-18T20:41:49.841Z,100.00
2023-11-18T20:44:21.722Z,100.00
2023-11-18T20:46:51.147Z,100.00
2023-11-18T20:49:19.338Z,100.00
2023-11-18T20:51:47.437Z,100.00
2023-11-18T20:54:15.540Z,100.00
2023-11-18T20:56:43.737Z,100.00
2023-11-18T20:59:11.940Z,100.00
2023-11-18T21:01:40.071Z,100.00
2023-11-18T21:04:11.366Z,100.00
2023-11-18T21:06:39.631Z,100.00
2023-11-18T21:09:08.216Z,100.00
2023-11-18T21:11:36.382Z,100.00
2023-11-18T21:14:05.382Z,100.00
2023-11-18T21:16:33.608Z,100.00
2023-11-18T21:19:04.305Z,100.00
2023-11-18T21:21:32.451Z,100.00
2023-11-18T21:24:04.272Z,100.00
2023-11-18T21:26:32.677Z,100.00
2023-11-18T21:29:00.897Z,100.00
2023-11-18T21:31:31.974Z,100.00
2023-11-18T21:34:05.563Z,100.00
2023-11-18T21:36:33.736Z,100.00
2023-11-18T21:39:01.852Z,100.00
2023-11-18T21:41:30.003Z,100.00
2023-11-18T21:43:59.229Z,100.00
2023-11-18T21:46:28.357Z,100.00
2023-11-18T21:48:56.571Z,100.00
2023-11-18T21:51:25.446Z,100.00
2023-11-18T21:53:53.639Z,100.00
2023-11-18T21:56:22.787Z,100.00
2023-11-18T21:58:51.075Z,100.00
2023-11-18T22:01:20.091Z,100.00
2023-11-18T22:03:49.769Z,100.00
2023-11-18T22:06:17.938Z,100.00
2023-11-18T22:08:46.130Z,100.00
2023-11-18T22:11:17.189Z,100.00
2023-11-18T22:13:49.281Z,100.00
2023-11-18T22:16:17.435Z,100.00
2023-11-18T22:18:50.496Z,100.00
2023-11-18T22:21:18.767Z,100.00
2023-11-18T22:23:47.103Z,100.00
2023-11-18T22:26:15.251Z,100.00
2023-11-18T22:28:43.335Z,100.00
2023-11-18T22:31:11.444Z,100.00
2023-11-18T22:33:39.620Z,100.00
2023-11-18T22:36:08.797Z,100.00
2023-11-18T22:38:38.930Z,100.00
2023-11-18T22:41:10.485Z,100.00
2023-11-18T22:43:38.932Z,100.00
2023-11-18T22:46:11.997Z,100.00
2023-11-18T22:48:40.205Z,100.00
2023-11-18T22:51:12.231Z,100.00
2023-11-18T22:53:43.785Z,100.00
2023-11-18T22:56:12.265Z,100.00
2023-11-18T22:58:40.694Z,100.00
2023-11-18T23:01:12.443Z,100.00
2023-11-18T23:03:40.628Z,100.00
2023-11-18T23:06:20.751Z,100.00
2023-11-18T23:08:49.784Z,100.00
2023-11-18T23:11:18.786Z,100.00
2023-11-18T23:13:47.817Z,100.00
2023-11-18T23:16:20.606Z,100.00
2023-11-18T23:18:51.064Z,100.00
2023-11-18T23:21:19.267Z,100.00
2023-11-18T23:23:48.727Z,100.00
2023-11-18T23:26:16.846Z,100.00
2023-11-18T23:28:45.007Z,100.00
2023-11-18T23:31:13.741Z,100.00
2023-11-18T23:33:42.880Z,100.00
2023-11-18T23:36:11.443Z,100.00
2023-11-18T23:38:39.994Z,100.00
2023-11-18T23:41:08.251Z,100.00
2023-11-18T23:43:37.314Z,100.00
2023-11-18T23:46:06.903Z,100.00
2023-11-18T23:48:35.312Z,100.00
2023-11-18T23:51:04.268Z,100.00
2023-11-18T23:53:33.704Z,100.00
2023-11-18T23:56:02.480Z,100.00
2023-11-18T23:58:35.016Z,100.00
